createdAt,value
2019-04-28T00:00:17.473Z,94.40
2019-04-28T00:02:46.595Z,94.50
2019-04-28T00:05:15.605Z,94.60
2019-04-28T00:07:44.639Z,94.80
2019-04-28T00:10:14.428Z,94.70
2019-04-28T00:12:43.578Z,94.70
2019-04-28T00:15:12.657Z,94.60
2019-04-28T00:17:42.032Z,94.50
2019-04-28T00:20:13.217Z,94.50
2019-04-28T00:22:56.097Z,94.70
2019-04-28T00:25:31.124Z,94.80
2019-04-28T00:28:01.651Z,94.80
2019-04-28T00:30:31.688Z,94.80
2019-04-28T00:33:01.802Z,94.80
2019-04-28T00:35:32.194Z,94.90
2019-04-28T00:38:01.578Z,95.00
2019-04-28T00:40:31.666Z,95.10
2019-04-28T00:43:01.142Z,95.30
2019-04-28T00:45:31.382Z,95.20
2019-04-28T00:48:01.092Z,95.20
2019-04-28T00:50:31.611Z,95.00
2019-04-28T00:53:01.753Z,95.30
2019-04-28T00:55:31.999Z,95.20
2019-04-28T00:58:01.219Z,95.40
2019-04-28T01:00:31.941Z,95.30
2019-04-28T01:03:02.202Z,95.10
2019-04-28T01:05:31.489Z,95.40
2019-04-28T01:08:01.134Z,95.30
2019-04-28T01:10:31.798Z,94.90
2019-04-28T01:13:02.119Z,94.40
2019-04-28T01:15:33.204Z,94.50
2019-04-28T01:18:15.562Z,94.10
2019-04-28T01:20:45.019Z,94.00
2019-04-28T01:23:14.144Z,94.00
2019-04-28T01:25:43.220Z,93.60
2019-04-28T01:28:12.271Z,93.60
2019-04-28T01:30:43.088Z,93.50
2019-04-28T01:33:20.569Z,92.90
2019-04-28T01:35:49.750Z,93.10
2019-04-28T01:38:20.454Z,93.00
2019-04-28T01:40:50.034Z,93.30
2019-04-28T01:43:19.600Z,92.50
2019-04-28T01:45:50.236Z,92.50
2019-04-28T01:48:19.922Z,92.80
2019-04-28T01:50:49.989Z,92.30
2019-04-28T01:53:19.887Z,92.70
2019-04-28T01:55:49.543Z,92.50
2019-04-28T01:58:20.439Z,92.40
2019-04-28T02:00:50.537Z,92.30
2019-04-28T02:03:20.576Z,92.80
2019-04-28T02:05:50.225Z,92.30
2019-04-28T02:08:20.286Z,91.90
2019-04-28T02:10:50.190Z,91.90
2019-04-28T02:13:19.899Z,92.00
2019-04-28T02:15:50.084Z,91.90
2019-04-28T02:18:19.920Z,91.90
2019-04-28T02:20:51.126Z,91.80
2019-04-28T02:23:22.074Z,92.10
2019-04-28T02:25:52.564Z,91.50
2019-04-28T02:28:21.599Z,91.30
2019-04-28T02:30:53.838Z,91.20
2019-04-28T02:33:21.316Z,91.90
2019-04-28T02:35:51.194Z,91.60
2019-04-28T02:38:20.980Z,91.50
2019-04-28T02:40:50.663Z,91.70
2019-04-28T02:43:20.944Z,91.50
2019-04-28T02:45:53.430Z,91.40
2019-04-28T02:48:23.217Z,91.30
2019-04-28T02:50:53.816Z,91.50
2019-04-28T02:53:33.235Z,91.60
2019-04-28T02:56:00.906Z,91.80
2019-04-28T02:58:31.280Z,91.90
2019-04-28T03:01:09.775Z,91.30
2019-04-28T03:03:31.430Z,91.50
2019-04-28T03:06:01.498Z,91.40
2019-04-28T03:08:30.884Z,91.40
2019-04-28T03:11:00.876Z,91.80
2019-04-28T03:13:31.134Z,91.70
2019-04-28T03:16:01.508Z,91.70
2019-04-28T03:18:31.841Z,91.70
2019-04-28T03:21:04.056Z,91.80
2019-04-28T03:23:31.983Z,91.20
2019-04-28T03:26:10.958Z,91.30
2019-04-28T03:28:57.446Z,91.40
2019-04-28T03:32:03.768Z,91.40
2019-04-28T03:34:12.975Z,91.50
2019-04-28T03:36:41.834Z,91.20
2019-04-28T03:39:11.147Z,91.40
2019-04-28T03:41:40.774Z,91.20
2019-04-28T03:44:11.500Z,90.90
2019-04-28T03:46:42.463Z,90.70
2019-04-28T03:49:13.158Z,90.80
2019-04-28T03:51:42.286Z,90.90
2019-04-28T03:54:11.422Z,90.90
2019-04-28T03:56:41.321Z,90.40
2019-04-28T03:59:10.509Z,90.90
2019-04-28T04:01:52.980Z,90.70
2019-04-28T04:04:11.338Z,90.90
2019-04-28T04:06:40.921Z,90.90
2019-04-28T04:09:11.300Z,91.10
2019-04-28T04:11:42.042Z,90.90
2019-04-28T04:14:14.336Z,91.20
2019-04-28T04:16:50.080Z,90.80
2019-04-28T04:19:20.315Z,90.80
2019-04-28T04:21:52.804Z,90.70
2019-04-28T04:24:21.658Z,90.80
2019-04-28T04:26:50.932Z,90.80
2019-04-28T04:29:21.678Z,90.90
2019-04-28T04:31:51.266Z,91.20
2019-04-28T04:34:20.449Z,90.90
2019-04-28T04:36:50.934Z,91.10
2019-04-28T04:39:20.663Z,91.20
2019-04-28T04:41:50.496Z,91.10
2019-04-28T04:44:21.074Z,90.90
2019-04-28T04:46:50.932Z,90.90
2019-04-28T04:49:21.593Z,91.00
2019-04-28T04:51:51.121Z,91.00
2019-04-28T04:54:20.557Z,90.90
2019-04-28T04:56:50.192Z,91.10
2019-04-28T04:59:20.315Z,91.10
2019-04-28T05:02:09.929Z,90.70
2019-04-28T05:04:44.511Z,90.90
2019-04-28T05:07:13.540Z,91.10
2019-04-28T05:09:42.532Z,91.10
2019-04-28T05:12:11.711Z,91.20
2019-04-28T05:14:40.742Z,91.30
2019-04-28T05:17:10.408Z,91.20
2019-04-28T05:19:40.247Z,91.20
2019-04-28T05:22:10.296Z,91.30
2019-04-28T05:24:41.002Z,91.40
2019-04-28T05:27:10.237Z,91.50
2019-04-28T05:29:39.762Z,91.70
2019-04-28T05:32:10.822Z,91.60
2019-04-28T05:34:46.607Z,92.00
2019-04-28T05:37:10.927Z,91.70
2019-04-28T05:39:40.539Z,91.70
2019-04-28T05:42:11.338Z,91.80
2019-04-28T05:44:40.942Z,91.60
2019-04-28T05:47:10.177Z,91.60
2019-04-28T05:49:43.331Z,91.50
2019-04-28T05:52:32.346Z,91.20
2019-04-28T05:55:05.944Z,91.50
2019-04-28T05:57:36.608Z,91.30
2019-04-28T06:00:19.645Z,90.80
2019-04-28T06:02:56.483Z,90.80
2019-04-28T06:05:20.629Z,90.70
2019-04-28T06:07:54.885Z,90.10
2019-04-28T06:10:23.847Z,90.00
2019-04-28T06:12:52.857Z,90.40
2019-04-28T06:15:21.860Z,90.00
2019-04-28T06:17:50.838Z,90.00
2019-04-28T06:20:20.240Z,90.40
2019-04-28T06:22:49.243Z,90.40
2019-04-28T06:25:18.216Z,90.60
2019-04-28T06:27:47.292Z,90.80
2019-04-28T06:30:16.503Z,91.00
2019-04-28T06:32:45.533Z,91.70
2019-04-28T06:35:14.482Z,91.80
2019-04-28T06:37:43.478Z,91.60
2019-04-28T06:40:12.616Z,90.90
2019-04-28T06:42:41.762Z,91.50
2019-04-28T06:45:11.071Z,91.40
2019-04-28T06:47:40.069Z,91.70
2019-04-28T06:50:09.440Z,91.30
2019-04-28T06:52:38.720Z,91.10
2019-04-28T06:55:07.909Z,91.50
2019-04-28T06:57:36.960Z,91.90
2019-04-28T07:00:07.190Z,92.10
2019-04-28T07:02:36.383Z,92.30
2019-04-28T07:05:07.143Z,92.20
2019-04-28T07:07:36.389Z,92.60
2019-04-28T07:10:08.890Z,92.80
2019-04-28T07:12:38.181Z,93.20
2019-04-28T07:15:07.588Z,93.40
2019-04-28T07:17:36.604Z,93.20
2019-04-28T07:20:08.325Z,93.00
2019-04-28T07:22:37.546Z,93.10
2019-04-28T07:25:07.120Z,92.80
2019-04-28T07:27:36.111Z,93.00
2019-04-28T07:30:07.002Z,93.20
2019-04-28T07:32:36.346Z,93.00
2019-04-28T07:35:06.519Z,93.00
2019-04-28T07:37:35.569Z,93.20
2019-04-28T07:40:06.721Z,93.00
2019-04-28T07:42:36.166Z,93.70
2019-04-28T07:45:07.146Z,93.80
2019-04-28T07:47:36.097Z,93.80
2019-04-28T07:50:06.530Z,93.50
2019-04-28T07:52:37.127Z,93.50
2019-04-28T07:55:07.464Z,93.90
2019-04-28T07:57:36.922Z,93.80
2019-04-28T08:00:06.815Z,94.50
2019-04-28T08:02:36.159Z,94.10
2019-04-28T08:05:06.525Z,94.40
2019-04-28T08:07:35.564Z,94.20
2019-04-28T08:10:05.265Z,94.10
2019-04-28T08:12:34.430Z,94.20
2019-04-28T08:15:03.945Z,93.90
2019-04-28T08:17:32.900Z,93.90
2019-04-28T08:20:01.904Z,93.80
2019-04-28T08:22:30.899Z,94.00
2019-04-28T08:24:59.865Z,93.70
2019-04-28T08:27:30.023Z,93.00
2019-04-28T08:30:00.185Z,93.30
2019-04-28T08:32:33.769Z,93.50
2019-04-28T08:35:03.074Z,93.60
2019-04-28T08:37:32.140Z,93.70
2019-04-28T08:40:01.382Z,93.70
2019-04-28T08:42:30.608Z,93.00
2019-04-28T08:44:59.917Z,93.70
2019-04-28T08:47:29.005Z,93.10
2019-04-28T08:49:58.335Z,92.50
2019-04-28T08:52:27.355Z,92.30
2019-04-28T08:54:56.418Z,92.30
2019-04-28T08:57:25.625Z,91.90
2019-04-28T08:59:54.618Z,91.70
2019-04-28T09:02:24.204Z,91.10
2019-04-28T09:04:53.292Z,91.10
2019-04-28T09:07:22.531Z,91.30
2019-04-28T09:09:52.026Z,91.90
2019-04-28T09:12:21.124Z,91.30
2019-04-28T09:14:50.154Z,91.30
2019-04-28T09:17:19.294Z,91.10
2019-04-28T09:19:48.398Z,91.30
2019-04-28T09:22:17.368Z,90.30
2019-04-28T09:24:46.419Z,90.30
2019-04-28T09:27:15.564Z,89.30
2019-04-28T09:29:44.612Z,87.80
2019-04-28T09:32:13.725Z,88.40
2019-04-28T09:34:42.667Z,89.40
2019-04-28T09:37:11.697Z,88.90
2019-04-28T09:39:42.296Z,90.00
2019-04-28T09:42:30.942Z,88.10
2019-04-28T09:45:05.174Z,89.00
2019-04-28T09:47:34.385Z,88.80
2019-04-28T09:50:04.737Z,90.00
2019-04-28T09:52:33.895Z,88.60
2019-04-28T09:55:02.902Z,88.40
2019-04-28T09:57:32.156Z,86.40
2019-04-28T10:00:01.303Z,86.60
2019-04-28T10:02:30.520Z,87.60
2019-04-28T10:04:59.831Z,85.60
2019-04-28T10:07:28.872Z,84.90
2019-04-28T10:09:57.892Z,85.10
2019-04-28T10:12:27.540Z,84.10
2019-04-28T10:14:56.862Z,83.20
2019-04-28T10:17:26.131Z,83.00
2019-04-28T10:19:55.280Z,83.80
2019-04-28T10:22:24.440Z,82.60
2019-04-28T10:24:53.646Z,78.90
2019-04-28T10:27:22.910Z,80.20
2019-04-28T10:29:54.108Z,79.60
2019-04-28T10:32:23.151Z,76.30
2019-04-28T10:34:55.085Z,76.20
2019-04-28T10:37:23.316Z,77.90
2019-04-28T10:39:56.627Z,77.80
2019-04-28T10:42:26.032Z,72.40
2019-04-28T10:44:55.473Z,72.00
2019-04-28T10:47:24.775Z,72.30
2019-04-28T10:49:54.149Z,74.10
2019-04-28T10:52:23.117Z,71.80
2019-04-28T10:54:52.193Z,72.50
2019-04-28T10:57:21.318Z,70.70
2019-04-28T10:59:50.615Z,69.10
2019-04-28T11:02:19.719Z,69.50
2019-04-28T11:04:50.345Z,67.50
2019-04-28T11:07:20.139Z,69.30
2019-04-28T11:09:50.766Z,68.80
2019-04-28T11:12:24.661Z,65.80
2019-04-28T11:14:53.790Z,67.30
2019-04-28T11:17:23.918Z,69.10
2019-04-28T11:19:52.912Z,69.20
2019-04-28T11:22:22.275Z,67.10
2019-04-28T11:24:51.594Z,64.30
2019-04-28T11:27:21.001Z,66.60
2019-04-28T11:29:50.314Z,69.10
2019-04-28T11:32:19.475Z,69.80
2019-04-28T11:34:50.288Z,68.50
2019-04-28T11:37:19.346Z,71.60
2019-04-28T11:39:48.321Z,70.80
2019-04-28T11:42:17.374Z,70.30
2019-04-28T11:44:46.500Z,70.80
2019-04-28T11:47:20.643Z,71.40
2019-04-28T11:49:49.889Z,73.10
2019-04-28T11:52:18.893Z,74.20
2019-04-28T11:54:48.023Z,77.30
2019-04-28T11:57:17.239Z,74.40
2019-04-28T11:59:47.159Z,72.80
2019-04-28T12:02:16.211Z,74.80
2019-04-28T12:04:45.293Z,75.30
2019-04-28T12:07:14.464Z,74.60
2019-04-28T12:10:05.839Z,75.00
2019-04-28T12:12:49.244Z,76.60
2019-04-28T12:15:37.754Z,76.50
2019-04-28T12:18:11.684Z,75.10
2019-04-28T12:20:41.596Z,74.00
2019-04-28T12:23:11.290Z,73.00
2019-04-28T12:25:40.229Z,71.40
2019-04-28T12:28:09.209Z,69.10
2019-04-28T12:30:38.151Z,70.70
2019-04-28T12:33:07.285Z,69.20
2019-04-28T12:35:47.098Z,71.20
2019-04-28T12:38:07.128Z,71.90
2019-04-28T12:40:36.094Z,74.30
2019-04-28T12:43:05.193Z,73.30
2019-04-28T12:45:35.190Z,68.20
2019-04-28T12:48:04.648Z,67.00
2019-04-28T12:50:41.496Z,66.50
2019-04-28T12:53:10.641Z,60.80
2019-04-28T12:55:39.773Z,61.50
2019-04-28T12:58:08.804Z,60.80
2019-04-28T13:00:39.487Z,58.80
2019-04-28T13:03:16.185Z,61.80
2019-04-28T13:05:46.901Z,59.80
2019-04-28T13:08:17.142Z,57.60
2019-04-28T13:10:47.708Z,56.30
2019-04-28T13:13:16.725Z,56.90
2019-04-28T13:15:45.947Z,56.10
2019-04-28T13:18:14.988Z,56.90
2019-04-28T13:20:44.083Z,57.10
2019-04-28T13:23:13.310Z,57.60
2019-04-28T13:25:42.364Z,59.40
2019-04-28T13:28:12.056Z,59.60
2019-04-28T13:30:41.273Z,59.90
2019-04-28T13:33:10.366Z,61.40
2019-04-28T13:35:39.454Z,63.30
2019-04-28T13:38:08.644Z,63.40
2019-04-28T13:40:39.353Z,61.70
2019-04-28T13:43:08.766Z,62.20
2019-04-28T13:45:38.126Z,63.10
2019-04-28T13:48:07.215Z,63.70
2019-04-28T13:50:37.555Z,63.80
2019-04-28T13:53:07.358Z,65.60
2019-04-28T13:55:47.391Z,66.50
2019-04-28T13:58:18.666Z,67.30
2019-04-28T14:00:49.695Z,68.10
2019-04-28T14:03:20.486Z,68.80
2019-04-28T14:05:54.285Z,68.90
2019-04-28T14:08:23.520Z,65.40
2019-04-28T14:10:52.718Z,74.60
2019-04-28T14:13:21.746Z,79.90
2019-04-28T14:15:50.771Z,81.90
2019-04-28T14:18:20.023Z,84.00
2019-04-28T14:20:49.138Z,84.40
2019-04-28T14:23:18.397Z,85.40
2019-04-28T14:25:47.849Z,85.10
2019-04-28T14:28:16.813Z,83.40
2019-04-28T14:30:45.938Z,84.80
2019-04-28T14:33:16.654Z,84.10
2019-04-28T14:35:45.937Z,82.70
2019-04-28T14:38:15.099Z,82.80
2019-04-28T14:40:44.334Z,81.10
2019-04-28T14:43:13.398Z,81.90
2019-04-28T14:45:42.824Z,80.40
2019-04-28T14:48:11.920Z,80.10
2019-04-28T14:50:42.433Z,80.50
2019-04-28T14:53:11.533Z,80.70
2019-04-28T14:55:40.889Z,80.50
2019-04-28T14:58:09.909Z,80.00
2019-04-28T15:00:40.659Z,79.90
2019-04-28T15:03:16.821Z,79.80
2019-04-28T15:05:50.470Z,79.70
2019-04-28T15:08:39.711Z,79.30
2019-04-28T15:11:28.746Z,78.70
2019-04-28T15:13:57.793Z,78.60
2019-04-28T15:16:28.165Z,77.90
2019-04-28T15:18:57.199Z,78.70
2019-04-28T15:21:26.234Z,79.70
2019-04-28T15:23:55.180Z,79.80
2019-04-28T15:26:24.289Z,78.50
2019-04-28T15:28:53.309Z,78.20
2019-04-28T15:31:22.473Z,77.90
2019-04-28T15:33:51.580Z,76.80
2019-04-28T15:36:21.346Z,77.20
2019-04-28T15:38:50.410Z,78.00
2019-04-28T15:41:21.930Z,78.30
2019-04-28T15:43:50.608Z,77.90
2019-04-28T15:46:19.710Z,75.20
2019-04-28T15:48:48.836Z,72.70
2019-04-28T15:51:18.225Z,72.20
2019-04-28T15:53:48.516Z,72.20
2019-04-28T15:56:19.226Z,71.70
2019-04-28T15:58:48.539Z,72.40
2019-04-28T16:01:17.591Z,71.40
2019-04-28T16:03:46.694Z,71.50
2019-04-28T16:06:15.830Z,69.60
2019-04-28T16:08:44.993Z,68.40
2019-04-28T16:11:14.117Z,69.40
2019-04-28T16:13:43.125Z,68.10
2019-04-28T16:16:12.307Z,70.80
2019-04-28T16:18:41.503Z,73.60
2019-04-28T16:21:10.763Z,74.00
2019-04-28T16:23:40.101Z,73.50
2019-04-28T16:26:09.435Z,74.60
2019-04-28T16:28:38.576Z,74.30
2019-04-28T16:31:07.697Z,74.40
2019-04-28T16:33:36.932Z,72.40
2019-04-28T16:36:06.423Z,71.00
2019-04-28T16:38:35.503Z,71.40
2019-04-28T16:41:06.385Z,71.40
2019-04-28T16:43:38.665Z,69.90
2019-04-28T16:46:07.777Z,72.40
2019-04-28T16:48:36.981Z,74.40
2019-04-28T16:51:06.057Z,70.50
2019-04-28T16:53:35.719Z,70.50
2019-04-28T16:56:15.296Z,71.50
2019-04-28T16:58:46.324Z,70.90
2019-04-28T17:01:26.320Z,72.00
2019-04-28T17:03:55.278Z,71.70
2019-04-28T17:06:24.525Z,74.10
2019-04-28T17:08:53.696Z,74.20
2019-04-28T17:11:22.884Z,75.30
2019-04-28T17:13:51.900Z,75.80
2019-04-28T17:16:21.084Z,72.70
2019-04-28T17:18:50.394Z,70.60
2019-04-28T17:21:19.529Z,75.30
2019-04-28T17:23:48.688Z,76.90
2019-04-28T17:26:17.825Z,77.70
2019-04-28T17:28:47.184Z,77.70
2019-04-28T17:31:16.415Z,77.70
2019-04-28T17:33:45.561Z,78.40
2019-04-28T17:36:14.788Z,79.10
2019-04-28T17:38:43.860Z,79.70
2019-04-28T17:41:12.988Z,80.00
2019-04-28T17:43:42.452Z,79.70
2019-04-28T17:46:11.644Z,79.70
2019-04-28T17:48:42.357Z,80.00
2019-04-28T17:51:11.483Z,80.20
2019-04-28T17:53:40.567Z,79.80
2019-04-28T17:56:09.673Z,79.70
2019-04-28T17:58:38.620Z,80.30
2019-04-28T18:01:26.140Z,80.70
2019-04-28T18:03:56.893Z,80.80
2019-04-28T18:06:27.650Z,81.30
2019-04-28T18:08:56.691Z,82.30
2019-04-28T18:11:26.010Z,82.40
2019-04-28T18:13:55.114Z,83.40
2019-04-28T18:16:42.463Z,83.30
2019-04-28T18:19:13.288Z,83.80
2019-04-28T18:21:42.409Z,83.80
2019-04-28T18:24:11.431Z,84.10
2019-04-28T18:26:40.530Z,84.40
2019-04-28T18:29:09.504Z,84.60
2019-04-28T18:31:42.906Z,82.90
2019-04-28T18:34:16.150Z,82.50
2019-04-28T18:37:03.285Z,82.60
2019-04-28T18:39:50.095Z,82.10
2019-04-28T18:42:20.956Z,82.20
2019-04-28T18:44:50.116Z,82.80
2019-04-28T18:47:19.234Z,83.10
2019-04-28T18:49:48.213Z,83.30
2019-04-28T18:52:17.197Z,83.30
2019-04-28T18:54:46.165Z,83.20
2019-04-28T18:57:15.204Z,83.90
2019-04-28T18:59:44.422Z,84.30
2019-04-28T19:02:21.297Z,84.20
2019-04-28T19:04:50.588Z,84.30
2019-04-28T19:07:21.267Z,84.90
2019-04-28T19:09:54.896Z,85.50
2019-04-28T19:12:25.555Z,85.00
2019-04-28T19:14:58.925Z,85.50
2019-04-28T19:17:35.132Z,86.00
2019-04-28T19:20:04.826Z,85.50
2019-04-28T19:22:35.464Z,86.00
2019-04-28T19:25:05.926Z,85.90
2019-04-28T19:27:34.893Z,86.30
2019-04-28T19:30:05.088Z,85.30
2019-04-28T19:32:34.144Z,85.80
2019-04-28T19:35:03.329Z,86.00
2019-04-28T19:37:32.279Z,85.70
2019-04-28T19:40:01.336Z,86.90
2019-04-28T19:42:30.497Z,87.40
2019-04-28T19:44:59.604Z,87.80
2019-04-28T19:47:28.687Z,88.10
2019-04-28T19:49:57.675Z,88.60
2019-04-28T19:52:26.862Z,89.70
2019-04-28T19:55:06.491Z,89.90
2019-04-28T19:57:45.824Z,89.80
2019-04-28T20:00:17.577Z,90.00
2019-04-28T20:02:46.616Z,90.10
2019-04-28T20:05:15.880Z,90.20
2019-04-28T20:07:44.813Z,90.30
2019-04-28T20:10:14.473Z,90.50
2019-04-28T20:12:43.526Z,90.40
2019-04-28T20:15:12.642Z,90.40
2019-04-28T20:17:41.666Z,90.40
2019-04-28T20:20:10.819Z,90.80
2019-04-28T20:22:39.877Z,90.60
2019-04-28T20:25:09.346Z,90.70
2019-04-28T20:27:38.347Z,90.80
2019-04-28T20:30:08.215Z,90.90
2019-04-28T20:32:46.924Z,90.80
2019-04-28T20:35:20.484Z,90.70
2019-04-28T20:37:54.351Z,90.80
2019-04-28T20:40:37.502Z,91.00
2019-04-28T20:43:10.787Z,90.90
2019-04-28T20:45:40.147Z,90.90
2019-04-28T20:48:09.250Z,90.80
2019-04-28T20:50:38.357Z,91.00
2019-04-28T20:53:07.762Z,91.10
2019-04-28T20:55:36.867Z,91.10
2019-04-28T20:58:05.989Z,91.20
2019-04-28T21:00:35.250Z,91.10
2019-04-28T21:03:04.633Z,91.00
2019-04-28T21:05:33.641Z,91.10
2019-04-28T21:08:02.922Z,91.30
2019-04-28T21:10:38.054Z,91.40
2019-04-28T21:13:02.844Z,91.30
2019-04-28T21:15:31.787Z,91.40
2019-04-28T21:18:00.957Z,91.50
2019-04-28T21:20:29.904Z,91.50
2019-04-28T21:22:58.854Z,91.80
2019-04-28T21:25:27.799Z,91.90
2019-04-28T21:27:56.771Z,92.10
2019-04-28T21:30:25.887Z,92.00
2019-04-28T21:32:54.864Z,91.90
2019-04-28T21:35:24.100Z,92.20
2019-04-28T21:37:53.053Z,92.20
2019-04-28T21:40:22.533Z,92.10
2019-04-28T21:43:11.221Z,92.00
2019-04-28T21:45:50.401Z,92.10
2019-04-28T21:48:38.533Z,92.60
2019-04-28T21:51:07.697Z,92.70
2019-04-28T21:53:36.774Z,92.60
2019-04-28T21:56:05.991Z,92.70
2019-04-28T21:58:34.973Z,92.60
2019-04-28T22:01:05.127Z,93.10
2019-04-28T22:03:34.219Z,93.00
2019-04-28T22:06:04.894Z,93.10
2019-04-28T22:08:34.069Z,92.90
2019-04-28T22:11:03.184Z,92.90
2019-04-28T22:13:32.368Z,92.80
2019-04-28T22:16:01.578Z,93.20
2019-04-28T22:18:30.893Z,93.60
2019-04-28T22:20:59.836Z,93.30
2019-04-28T22:23:36.643Z,93.40
2019-04-28T22:26:05.987Z,93.20
2019-04-28T22:28:35.004Z,93.20
2019-04-28T22:31:04.098Z,93.10
2019-04-28T22:33:33.049Z,93.20
2019-04-28T22:36:02.316Z,93.60
2019-04-28T22:38:31.282Z,93.10
2019-04-28T22:41:00.679Z,93.20
2019-04-28T22:43:29.685Z,93.50
2019-04-28T22:45:58.733Z,93.50
2019-04-28T22:48:27.680Z,93.20
2019-04-28T22:50:56.723Z,93.30
2019-04-28T22:53:27.490Z,93.30
2019-04-28T22:55:58.752Z,93.20
2019-04-28T22:58:32.409Z,93.10
2019-04-28T23:01:03.164Z,93.10
2019-04-28T23:03:36.314Z,93.00
2019-04-28T23:06:05.387Z,93.10
2019-04-28T23:08:34.632Z,93.10
2019-04-28T23:11:03.738Z,93.00
2019-04-28T23:13:32.799Z,92.90
2019-04-28T23:16:02.133Z,92.90
2019-04-28T23:18:31.148Z,92.80
2019-04-28T23:21:01.861Z,92.70
2019-04-28T23:23:31.004Z,92.60
2019-04-28T23:26:02.913Z,92.90
2019-04-28T23:28:30.845Z,93.10
2019-04-28T23:30:59.913Z,93.00
2019-04-28T23:33:29.130Z,93.10
2019-04-28T23:35:58.193Z,93.10
2019-04-28T23:38:27.242Z,93.10
2019-04-28T23:41:10.068Z,93.30
2019-04-28T23:43:39.131Z,93.30
2019-04-28T23:46:08.428Z,93.30
2019-04-28T23:48:37.534Z,93.20
2019-04-28T23:51:11.071Z,93.20
2019-04-28T23:53:44.875Z,93.30
2019-04-28T23:56:14.068Z,93.40
2019-04-28T23:58:43.156Z,93.40
